createdAt,value
2022-12-04T00:00:55.338Z,25.86
2022-12-04T00:02:55.274Z,25.87
2022-12-04T00:04:55.415Z,25.91
2022-12-04T00:06:58.643Z,25.90
2022-12-04T00:08:55.345Z,25.84
2022-12-04T00:10:55.362Z,25.89
2022-12-04T00:12:55.390Z,25.84
2022-12-04T00:15:25.043Z,25.78
2022-12-04T00:16:55.546Z,25.90
2022-12-04T00:18:55.329Z,25.61
2022-12-04T00:20:55.357Z,25.75
2022-12-04T00:22:55.389Z,25.75
2022-12-04T00:24:55.386Z,25.79
2022-12-04T00:26:55.267Z,25.83
2022-12-04T00:28:55.427Z,25.85
2022-12-04T00:30:55.246Z,25.91
2022-12-04T00:32:55.404Z,25.88
2022-12-04T00:34:55.400Z,25.85
2022-12-04T00:36:55.443Z,25.93
2022-12-04T00:38:55.324Z,25.91
2022-12-04T00:40:55.355Z,25.90
2022-12-04T00:42:55.358Z,25.91
2022-12-04T00:44:55.453Z,25.95
2022-12-04T00:46:55.377Z,25.92
2022-12-04T00:48:55.431Z,25.88
2022-12-04T00:50:55.303Z,25.90
2022-12-04T00:52:55.418Z,25.88
2022-12-04T00:54:55.388Z,25.52
2022-12-04T00:56:55.396Z,25.84
2022-12-04T00:58:55.324Z,25.90
2022-12-04T01:00:55.315Z,25.91
2022-12-04T01:02:55.429Z,25.91
2022-12-04T01:04:55.453Z,25.97
2022-12-04T01:06:58.041Z,25.97
2022-12-04T01:08:55.435Z,25.84
2022-12-04T01:10:55.382Z,25.83
2022-12-04T01:12:55.477Z,25.81
2022-12-04T01:14:55.471Z,25.85
2022-12-04T01:16:55.598Z,25.90
2022-12-04T01:18:55.495Z,25.86
2022-12-04T01:20:55.483Z,25.80
2022-12-04T01:22:55.405Z,25.79
2022-12-04T01:24:55.469Z,25.63
2022-12-04T01:26:55.484Z,25.83
2022-12-04T01:28:55.488Z,25.84
2022-12-04T01:30:55.369Z,25.81
2022-12-04T01:32:55.460Z,25.75
2022-12-04T01:34:55.369Z,25.85
2022-12-04T01:36:55.422Z,25.80
2022-12-04T01:38:55.433Z,25.79
2022-12-04T01:40:55.469Z,25.79
2022-12-04T01:42:55.436Z,25.80
2022-12-04T01:44:55.455Z,25.82
2022-12-04T01:46:55.485Z,25.81
2022-12-04T01:48:55.506Z,25.80
2022-12-04T01:50:55.465Z,25.82
2022-12-04T01:52:55.358Z,25.80
2022-12-04T01:54:55.502Z,25.80
2022-12-04T01:56:55.493Z,25.88
2022-12-04T01:58:55.416Z,25.84
2022-12-04T02:00:58.394Z,25.84
2022-12-04T02:02:55.463Z,25.83
2022-12-04T02:04:55.500Z,25.77
2022-12-04T02:06:55.521Z,25.80
2022-12-04T02:08:55.528Z,25.85
2022-12-04T02:10:55.511Z,25.93
2022-12-04T02:12:55.436Z,25.94
2022-12-04T02:14:55.507Z,25.88
2022-12-04T02:16:55.580Z,25.91
2022-12-04T02:18:55.531Z,25.90
2022-12-04T02:20:55.516Z,25.90
2022-12-04T02:22:55.356Z,25.88
2022-12-04T02:24:55.518Z,25.65
2022-12-04T02:26:55.377Z,25.87
2022-12-04T02:28:55.520Z,25.88
2022-12-04T02:30:55.545Z,25.82
2022-12-04T02:32:55.477Z,25.89
2022-12-04T02:34:55.529Z,25.84
2022-12-04T02:36:55.434Z,25.82
2022-12-04T02:38:55.397Z,25.92
2022-12-04T02:40:55.555Z,25.86
2022-12-04T02:42:55.485Z,25.89
2022-12-04T02:44:55.546Z,25.82
2022-12-04T02:46:55.433Z,25.90
2022-12-04T02:48:55.546Z,25.97
2022-12-04T02:50:55.550Z,25.95
2022-12-04T02:52:55.593Z,25.85
2022-12-04T02:54:55.575Z,25.90
2022-12-04T02:56:55.451Z,25.86
2022-12-04T02:58:55.470Z,25.88
2022-12-04T03:00:55.559Z,25.84
2022-12-04T03:02:55.572Z,25.89
2022-12-04T03:04:55.580Z,25.80
2022-12-04T03:06:55.589Z,25.81
2022-12-04T03:08:55.446Z,25.79
2022-12-04T03:10:55.391Z,25.80
2022-12-04T03:12:55.584Z,25.65
2022-12-04T03:14:55.597Z,25.75
2022-12-04T03:16:55.658Z,25.76
2022-12-04T03:18:55.549Z,25.83
2022-12-04T03:20:55.507Z,25.80
2022-12-04T03:22:55.597Z,25.83
2022-12-04T03:24:55.486Z,25.86
2022-12-04T03:26:55.458Z,25.81
2022-12-04T03:28:55.598Z,25.84
2022-12-04T03:30:55.523Z,25.83
2022-12-04T03:32:55.592Z,25.84
2022-12-04T03:34:55.500Z,25.82
2022-12-04T03:36:55.545Z,25.75
2022-12-04T03:38:55.598Z,25.80
2022-12-04T03:40:55.520Z,25.80
2022-12-04T03:42:55.595Z,25.90
2022-12-04T03:44:55.555Z,25.83
2022-12-04T03:46:55.542Z,25.82
2022-12-04T03:48:55.559Z,25.90
2022-12-04T03:50:55.617Z,25.84
2022-12-04T03:52:55.507Z,25.86
2022-12-04T03:54:55.617Z,25.85
2022-12-04T03:56:55.611Z,25.88
2022-12-04T03:58:55.636Z,25.96
2022-12-04T04:00:55.544Z,25.90
2022-12-04T04:02:55.689Z,25.90
2022-12-04T04:04:55.705Z,25.94
2022-12-04T04:06:55.592Z,25.95
2022-12-04T04:08:55.642Z,25.90
2022-12-04T04:10:55.643Z,25.90
2022-12-04T04:12:55.614Z,25.90
2022-12-04T04:14:55.591Z,25.82
2022-12-04T04:16:55.636Z,25.85
2022-12-04T04:18:55.654Z,25.82
2022-12-04T04:20:55.548Z,25.77
2022-12-04T04:22:56.278Z,25.86
2022-12-04T04:24:55.664Z,25.79
2022-12-04T04:26:55.655Z,25.80
2022-12-04T04:28:55.549Z,25.75
2022-12-04T04:30:55.627Z,25.74
2022-12-04T04:32:55.673Z,25.65
2022-12-04T04:34:55.522Z,25.77
2022-12-04T04:36:55.609Z,25.65
2022-12-04T04:38:55.609Z,25.72
2022-12-04T04:40:55.695Z,25.61
2022-12-04T04:42:55.509Z,25.63
2022-12-04T04:44:55.574Z,25.58
2022-12-04T04:46:55.705Z,25.75
2022-12-04T04:48:55.553Z,25.81
2022-12-04T04:50:55.611Z,25.81
2022-12-04T04:52:55.674Z,25.84
2022-12-04T04:54:55.678Z,25.91
2022-12-04T04:56:55.630Z,25.83
2022-12-04T04:58:55.582Z,25.81
2022-12-04T05:00:55.679Z,25.86
2022-12-04T05:02:55.738Z,25.90
2022-12-04T05:04:55.592Z,25.93
2022-12-04T05:06:55.636Z,25.90
2022-12-04T05:08:55.675Z,25.83
2022-12-04T05:10:55.587Z,25.96
2022-12-04T05:12:55.717Z,25.92
2022-12-04T05:14:55.693Z,25.93
2022-12-04T05:16:58.883Z,25.93
2022-12-04T05:18:55.703Z,25.95
2022-12-04T05:20:55.738Z,25.89
2022-12-04T05:22:55.679Z,25.84
2022-12-04T05:24:55.683Z,25.84
2022-12-04T05:26:55.709Z,25.93
2022-12-04T05:28:55.730Z,25.83
2022-12-04T05:30:55.696Z,25.80
2022-12-04T05:32:55.662Z,25.90
2022-12-04T05:34:55.625Z,25.88
2022-12-04T05:36:55.677Z,25.91
2022-12-04T05:38:55.663Z,25.94
2022-12-04T05:40:55.721Z,25.86
2022-12-04T05:42:55.549Z,25.86
2022-12-04T05:44:55.717Z,25.86
2022-12-04T05:46:55.807Z,25.89
2022-12-04T05:48:55.733Z,25.80
2022-12-04T05:50:55.682Z,25.80
2022-12-04T05:52:55.590Z,25.84
2022-12-04T05:54:55.685Z,25.83
2022-12-04T05:56:55.732Z,25.86
2022-12-04T05:58:55.736Z,25.80
2022-12-04T06:00:55.789Z,25.83
2022-12-04T06:02:55.844Z,25.86
2022-12-04T06:04:55.751Z,25.80
2022-12-04T06:06:55.635Z,25.91
2022-12-04T06:08:55.719Z,25.97
2022-12-04T06:10:55.598Z,25.88
2022-12-04T06:12:55.668Z,25.80
2022-12-04T06:14:55.855Z,25.80
2022-12-04T06:16:55.802Z,25.92
2022-12-04T06:18:55.788Z,25.84
2022-12-04T06:20:55.626Z,25.88
2022-12-04T06:22:55.602Z,25.80
2022-12-04T06:24:55.687Z,25.81
2022-12-04T06:27:25.576Z,25.80
2022-12-04T06:28:55.785Z,25.83
2022-12-04T06:30:55.785Z,25.83
2022-12-04T06:32:55.778Z,25.88
2022-12-04T06:34:55.652Z,25.84
2022-12-04T06:36:55.796Z,25.94
2022-12-04T06:38:55.682Z,25.88
2022-12-04T06:40:55.761Z,25.86
2022-12-04T06:42:55.685Z,24.98
2022-12-04T06:44:55.735Z,25.01
2022-12-04T06:46:55.772Z,24.84
2022-12-04T06:48:55.637Z,24.74
2022-12-04T06:50:55.774Z,24.76
2022-12-04T06:52:55.694Z,24.74
2022-12-04T06:54:55.794Z,24.60
2022-12-04T06:56:55.743Z,24.64
2022-12-04T06:58:55.842Z,24.64
2022-12-04T07:00:55.746Z,24.54
2022-12-04T07:02:55.735Z,24.50
2022-12-04T07:04:55.837Z,24.43
2022-12-04T07:06:55.817Z,24.41
2022-12-04T07:08:55.891Z,24.38
2022-12-04T07:10:59.223Z,24.35
2022-12-04T07:12:55.820Z,24.29
2022-12-04T07:14:55.752Z,24.23
2022-12-04T07:16:55.855Z,24.26
2022-12-04T07:18:55.705Z,24.20
2022-12-04T07:20:55.891Z,24.12
2022-12-04T07:22:55.745Z,24.10
2022-12-04T07:24:55.816Z,24.10
2022-12-04T07:26:55.825Z,24.05
2022-12-04T07:28:55.805Z,24.10
2022-12-04T07:30:55.840Z,23.97
2022-12-04T07:32:55.712Z,24.04
2022-12-04T07:34:55.817Z,24.04
2022-12-04T07:36:55.856Z,23.90
2022-12-04T07:38:55.962Z,24.09
2022-12-04T07:40:55.839Z,23.93
2022-12-04T07:42:55.851Z,24.01
2022-12-04T07:44:55.703Z,23.97
2022-12-04T07:46:55.737Z,23.96
2022-12-04T07:48:55.875Z,24.01
2022-12-04T07:50:55.830Z,23.95
2022-12-04T07:52:55.778Z,24.04
2022-12-04T07:54:55.874Z,23.88
2022-12-04T07:56:55.842Z,23.91
2022-12-04T07:58:55.763Z,23.91
2022-12-04T08:00:55.966Z,23.81
2022-12-04T08:02:55.765Z,23.82
2022-12-04T08:04:55.947Z,23.95
2022-12-04T08:06:55.868Z,23.91
2022-12-04T08:08:55.726Z,23.98
2022-12-04T08:10:55.862Z,24.02
2022-12-04T08:12:55.896Z,23.96
2022-12-04T08:14:55.878Z,23.94
2022-12-04T08:16:55.937Z,23.97
2022-12-04T08:18:55.819Z,23.96
2022-12-04T08:20:55.774Z,24.04
2022-12-04T08:22:55.836Z,24.01
2022-12-04T08:24:55.735Z,23.98
2022-12-04T08:26:55.787Z,24.05
2022-12-04T08:28:55.906Z,24.08
2022-12-04T08:30:55.983Z,24.12
2022-12-04T08:32:55.920Z,24.10
2022-12-04T08:34:56.165Z,24.04
2022-12-04T08:36:55.775Z,24.10
2022-12-04T08:38:55.916Z,24.05
2022-12-04T08:40:55.895Z,23.98
2022-12-04T08:42:55.990Z,24.05
2022-12-04T08:44:55.869Z,24.04
2022-12-04T08:46:55.769Z,24.00
2022-12-04T08:48:55.920Z,24.10
2022-12-04T08:50:55.938Z,24.02
2022-12-04T08:52:55.942Z,24.05
2022-12-04T08:54:55.922Z,24.01
2022-12-04T08:56:55.802Z,24.12
2022-12-04T08:58:55.986Z,24.09
2022-12-04T09:00:55.770Z,24.18
2022-12-04T09:02:55.949Z,24.25
2022-12-04T09:04:56.038Z,24.27
2022-12-04T09:06:55.944Z,24.22
2022-12-04T09:08:55.880Z,24.34
2022-12-04T09:10:55.772Z,24.40
2022-12-04T09:12:55.955Z,24.44
2022-12-04T09:14:55.918Z,24.43
2022-12-04T09:16:55.869Z,24.51
2022-12-04T09:18:55.967Z,24.41
2022-12-04T09:20:55.997Z,24.39
2022-12-04T09:23:04.337Z,24.51
2022-12-04T09:24:55.825Z,24.44
2022-12-04T09:26:55.908Z,24.52
2022-12-04T09:28:55.813Z,24.48
2022-12-04T09:30:56.054Z,24.61
2022-12-04T09:32:55.972Z,24.46
2022-12-04T09:34:55.751Z,24.41
2022-12-04T09:36:55.815Z,24.61
2022-12-04T09:38:55.827Z,24.68
2022-12-04T09:40:55.974Z,24.65
2022-12-04T09:42:55.989Z,24.66
2022-12-04T09:44:55.950Z,24.72
2022-12-04T09:46:55.955Z,24.66
2022-12-04T09:48:55.825Z,24.67
2022-12-04T09:50:55.958Z,24.90
2022-12-04T09:52:56.007Z,24.81
2022-12-04T09:54:56.002Z,24.89
2022-12-04T09:56:55.997Z,24.90
2022-12-04T09:58:55.891Z,24.98
2022-12-04T10:00:55.990Z,25.01
2022-12-04T10:02:56.207Z,25.19
2022-12-04T10:04:55.854Z,25.07
2022-12-04T10:06:55.995Z,25.01
2022-12-04T10:08:56.020Z,24.95
2022-12-04T10:10:55.998Z,24.93
2022-12-04T10:12:56.011Z,25.00
2022-12-04T10:14:55.989Z,24.96
2022-12-04T10:16:55.896Z,25.05
2022-12-04T10:18:56.037Z,25.23
2022-12-04T10:20:55.927Z,25.23
2022-12-04T10:22:55.909Z,25.24
2022-12-04T10:24:55.928Z,25.37
2022-12-04T10:26:56.035Z,25.35
2022-12-04T10:28:55.998Z,25.28
2022-12-04T10:30:56.019Z,25.45
2022-12-04T10:32:55.976Z,25.42
2022-12-04T10:34:56.039Z,25.52
2022-12-04T10:36:56.041Z,25.63
2022-12-04T10:38:56.025Z,25.72
2022-12-04T10:40:56.055Z,25.53
2022-12-04T10:42:56.033Z,25.52
2022-12-04T10:44:56.006Z,25.26
2022-12-04T10:46:56.073Z,25.53
2022-12-04T10:48:56.035Z,25.52
2022-12-04T10:50:56.068Z,25.65
2022-12-04T10:52:56.061Z,25.86
2022-12-04T10:54:56.055Z,25.75
2022-12-04T10:56:56.071Z,25.72
2022-12-04T10:58:56.076Z,25.79
2022-12-04T11:00:56.025Z,25.75
2022-12-04T11:02:56.159Z,25.64
2022-12-04T11:04:55.942Z,25.60
2022-12-04T11:06:55.918Z,25.60
2022-12-04T11:08:56.062Z,25.52
2022-12-04T11:10:56.070Z,25.52
2022-12-04T11:12:55.913Z,25.53
2022-12-04T11:14:56.045Z,25.54
2022-12-04T11:16:56.032Z,25.58
2022-12-04T11:18:56.137Z,25.61
2022-12-04T11:20:56.106Z,25.52
2022-12-04T11:22:56.082Z,25.52
2022-12-04T11:24:56.081Z,25.44
2022-12-04T11:26:56.181Z,25.47
2022-12-04T11:28:56.094Z,25.31
2022-12-04T11:30:56.095Z,25.47
2022-12-04T11:32:56.128Z,25.47
2022-12-04T11:34:56.067Z,25.53
2022-12-04T11:36:56.143Z,25.47
2022-12-04T11:38:56.117Z,25.40
2022-12-04T11:40:56.024Z,25.23
2022-12-04T11:42:56.117Z,25.23
2022-12-04T11:44:56.010Z,25.24
2022-12-04T11:46:56.251Z,25.24
2022-12-04T11:48:55.957Z,25.21
2022-12-04T11:50:56.088Z,25.23
2022-12-04T11:52:56.080Z,25.35
2022-12-04T11:54:56.089Z,25.29
2022-12-04T11:56:56.118Z,25.52
2022-12-04T11:58:56.062Z,25.29
2022-12-04T12:00:56.134Z,25.21
2022-12-04T12:02:56.238Z,25.23
2022-12-04T12:04:56.114Z,25.22
2022-12-04T12:06:56.157Z,25.17
2022-12-04T12:08:56.027Z,25.18
2022-12-04T12:10:56.103Z,25.13
2022-12-04T12:12:56.120Z,25.12
2022-12-04T12:14:56.386Z,25.10
2022-12-04T12:16:56.124Z,25.08
2022-12-04T12:18:56.158Z,24.95
2022-12-04T12:20:56.005Z,24.92
2022-12-04T12:22:56.151Z,24.90
2022-12-04T12:24:56.432Z,25.08
2022-12-04T12:26:56.135Z,25.06
2022-12-04T12:28:56.055Z,25.00
2022-12-04T12:30:58.956Z,24.99
2022-12-04T12:32:56.174Z,25.01
2022-12-04T12:34:56.157Z,24.92
2022-12-04T12:37:00.574Z,24.77
2022-12-04T12:38:55.998Z,24.66
2022-12-04T12:40:56.206Z,24.98
2022-12-04T12:42:58.404Z,24.94
2022-12-04T12:44:56.003Z,24.83
2022-12-04T12:46:56.119Z,24.83
2022-12-04T12:48:58.581Z,24.91
2022-12-04T12:51:14.733Z,24.72
2022-12-04T12:52:56.175Z,24.79
2022-12-04T12:54:56.176Z,24.66
2022-12-04T12:56:56.177Z,24.66
2022-12-04T12:58:56.192Z,24.66
2022-12-04T13:00:56.157Z,24.57
2022-12-04T13:02:56.234Z,24.53
2022-12-04T13:04:56.213Z,24.64
2022-12-04T13:06:56.166Z,24.66
2022-12-04T13:08:56.178Z,24.62
2022-12-04T13:10:56.126Z,24.64
2022-12-04T13:12:56.215Z,24.52
2022-12-04T13:14:56.200Z,24.60
2022-12-04T13:16:56.231Z,24.40
2022-12-04T13:18:56.149Z,24.66
2022-12-04T13:20:56.208Z,24.66
2022-12-04T13:22:56.221Z,24.62
2022-12-04T13:24:56.193Z,24.65
2022-12-04T13:26:56.059Z,24.50
2022-12-04T13:28:56.224Z,24.65
2022-12-04T13:30:56.214Z,24.62
2022-12-04T13:32:56.210Z,24.59
2022-12-04T13:34:56.247Z,24.66
2022-12-04T13:36:56.064Z,24.51
2022-12-04T13:38:58.276Z,24.60
2022-12-04T13:40:56.122Z,24.49
2022-12-04T13:42:56.235Z,24.48
2022-12-04T13:44:56.295Z,24.11
2022-12-04T13:46:56.248Z,24.36
2022-12-04T13:48:56.140Z,24.32
2022-12-04T13:50:56.206Z,24.20
2022-12-04T13:52:56.267Z,24.23
2022-12-04T13:54:56.399Z,24.22
2022-12-04T13:56:56.168Z,24.41
2022-12-04T13:58:56.148Z,24.34
2022-12-04T14:00:56.305Z,24.34
2022-12-04T14:02:56.239Z,24.26
2022-12-04T14:04:56.560Z,24.25
2022-12-04T14:06:56.168Z,24.29
2022-12-04T14:08:56.312Z,24.18
2022-12-04T14:10:56.289Z,24.14
2022-12-04T14:12:56.167Z,24.14
2022-12-04T14:14:56.582Z,24.20
2022-12-04T14:16:56.384Z,24.26
2022-12-04T14:18:56.280Z,24.07
2022-12-04T14:20:56.222Z,24.10
2022-12-04T14:22:56.177Z,23.96
2022-12-04T14:24:56.460Z,24.14
2022-12-04T14:27:11.396Z,24.15
2022-12-04T14:28:56.289Z,24.10
2022-12-04T14:30:56.334Z,24.07
2022-12-04T14:32:56.227Z,24.10
2022-12-04T14:34:56.704Z,24.11
2022-12-04T14:36:56.332Z,24.05
2022-12-04T14:38:56.243Z,24.06
2022-12-04T14:40:56.208Z,24.08
2022-12-04T14:42:56.333Z,23.97
2022-12-04T14:44:56.614Z,23.97
2022-12-04T14:46:56.300Z,23.99
2022-12-04T14:48:56.296Z,23.93
2022-12-04T14:50:56.331Z,23.88
2022-12-04T14:52:56.327Z,23.84
2022-12-04T14:54:56.611Z,23.89
2022-12-04T14:56:56.269Z,23.81
2022-12-04T14:58:56.237Z,23.73
2022-12-04T15:00:56.370Z,23.81
2022-12-04T15:02:56.463Z,23.70
2022-12-04T15:04:56.675Z,23.86
2022-12-04T15:07:00.211Z,23.65
2022-12-04T15:08:56.328Z,23.77
2022-12-04T15:10:56.282Z,23.67
2022-12-04T15:12:56.409Z,23.80
2022-12-04T15:14:56.725Z,23.67
2022-12-04T15:16:56.313Z,23.70
2022-12-04T15:18:56.412Z,23.73
2022-12-04T15:20:56.307Z,23.69
2022-12-04T15:22:56.249Z,23.70
2022-12-04T15:24:56.651Z,23.73
2022-12-04T15:26:56.377Z,23.67
2022-12-04T15:28:56.427Z,23.68
2022-12-04T15:30:56.488Z,23.73
2022-12-04T15:32:56.245Z,23.76
2022-12-04T15:34:56.459Z,23.83
2022-12-04T15:36:56.340Z,23.75
2022-12-04T15:38:56.322Z,23.81
2022-12-04T15:40:56.374Z,23.82
2022-12-04T15:42:56.239Z,23.81
2022-12-04T15:44:56.605Z,27.31
2022-12-04T15:46:56.504Z,27.47
2022-12-04T15:48:56.356Z,25.80
2022-12-04T15:50:56.405Z,25.82
2022-12-04T15:52:56.295Z,25.84
2022-12-04T15:54:56.774Z,25.80
2022-12-04T15:56:56.357Z,25.84
2022-12-04T15:58:56.398Z,25.92
2022-12-04T16:00:56.349Z,25.95
2022-12-04T16:02:56.276Z,25.95
2022-12-04T16:04:56.290Z,25.86
2022-12-04T16:06:56.392Z,25.86
2022-12-04T16:08:56.288Z,25.84
2022-12-04T16:10:56.279Z,25.83
2022-12-04T16:12:56.439Z,25.83
2022-12-04T16:14:56.592Z,25.93
2022-12-04T16:16:58.086Z,25.89
2022-12-04T16:18:56.410Z,25.91
2022-12-04T16:20:56.414Z,25.91
2022-12-04T16:22:56.414Z,25.86
2022-12-04T16:24:56.684Z,25.83
2022-12-04T16:26:56.446Z,25.89
2022-12-04T16:28:56.240Z,25.89
2022-12-04T16:30:56.373Z,25.97
2022-12-04T16:32:56.397Z,25.97
2022-12-04T16:34:56.706Z,25.90
2022-12-04T16:36:56.421Z,25.85
2022-12-04T16:38:56.508Z,25.89
2022-12-04T16:40:56.411Z,25.99
2022-12-04T16:42:56.402Z,25.96
2022-12-04T16:44:56.715Z,25.91
2022-12-04T16:46:56.308Z,25.92
2022-12-04T16:48:56.415Z,25.92
2022-12-04T16:50:56.338Z,25.89
2022-12-04T16:52:56.444Z,25.90
2022-12-04T16:54:58.486Z,25.91
2022-12-04T16:56:56.449Z,25.82
2022-12-04T16:58:56.458Z,25.88
2022-12-04T17:00:56.440Z,25.94
2022-12-04T17:02:56.385Z,25.86
2022-12-04T17:04:58.103Z,25.87
2022-12-04T17:06:56.479Z,25.88
2022-12-04T17:08:56.450Z,25.89
2022-12-04T17:10:56.493Z,25.91
2022-12-04T17:12:56.458Z,25.91
2022-12-04T17:14:56.648Z,25.83
2022-12-04T17:16:56.477Z,25.82
2022-12-04T17:18:56.465Z,25.84
2022-12-04T17:20:56.477Z,25.80
2022-12-04T17:22:56.462Z,25.83
2022-12-04T17:24:56.525Z,25.82
2022-12-04T17:26:56.511Z,25.76
2022-12-04T17:28:56.312Z,25.75
2022-12-04T17:30:56.572Z,25.83
2022-12-04T17:32:56.486Z,25.85
2022-12-04T17:34:56.660Z,25.74
2022-12-04T17:36:56.515Z,25.77
2022-12-04T17:38:56.506Z,25.75
2022-12-04T17:40:56.506Z,25.63
2022-12-04T17:42:56.523Z,25.75
2022-12-04T17:44:56.871Z,25.80
2022-12-04T17:46:56.647Z,25.78
2022-12-04T17:48:56.495Z,25.80
2022-12-04T17:50:56.342Z,25.78
2022-12-04T17:52:56.517Z,25.77
2022-12-04T17:54:56.857Z,25.65
2022-12-04T17:56:58.122Z,25.92
2022-12-04T17:58:56.518Z,25.79
2022-12-04T18:00:56.466Z,25.83
2022-12-04T18:02:56.564Z,25.75
2022-12-04T18:04:56.739Z,25.65
2022-12-04T18:06:56.483Z,25.85
2022-12-04T18:08:56.504Z,25.82
2022-12-04T18:10:56.427Z,25.86
2022-12-04T18:12:56.549Z,25.93
2022-12-04T18:14:56.515Z,25.90
2022-12-04T18:16:56.661Z,25.91
2022-12-04T18:18:56.545Z,25.85
2022-12-04T18:20:56.486Z,25.80
2022-12-04T18:22:56.428Z,25.83
2022-12-04T18:24:56.565Z,25.95
2022-12-04T18:26:56.549Z,25.81
2022-12-04T18:28:56.683Z,25.84
2022-12-04T18:30:56.512Z,25.49
2022-12-04T18:32:56.536Z,25.77
2022-12-04T18:34:56.578Z,25.83
2022-12-04T18:36:56.552Z,25.80
2022-12-04T18:38:56.438Z,25.80
2022-12-04T18:40:56.575Z,25.91
2022-12-04T18:42:56.531Z,25.84
2022-12-04T18:44:56.557Z,25.92
2022-12-04T18:46:56.601Z,25.85
2022-12-04T18:48:56.432Z,25.90
2022-12-04T18:50:56.568Z,25.81
2022-12-04T18:53:00.078Z,25.94
2022-12-04T18:54:56.724Z,25.83
2022-12-04T18:56:56.469Z,25.92
2022-12-04T18:58:56.525Z,25.82
2022-12-04T19:00:56.646Z,25.96
2022-12-04T19:02:56.563Z,25.86
2022-12-04T19:04:56.622Z,25.88
2022-12-04T19:06:56.598Z,25.81
2022-12-04T19:08:56.544Z,25.84
2022-12-04T19:10:56.572Z,25.82
2022-12-04T19:12:56.597Z,25.95
2022-12-04T19:14:56.606Z,25.83
2022-12-04T19:16:56.612Z,25.83
2022-12-04T19:18:56.599Z,25.86
2022-12-04T19:20:56.693Z,25.91
2022-12-04T19:22:56.629Z,25.90
2022-12-04T19:24:56.607Z,25.84
2022-12-04T19:26:56.649Z,25.84
2022-12-04T19:28:56.583Z,25.85
2022-12-04T19:30:56.553Z,25.84
2022-12-04T19:32:56.562Z,25.83
2022-12-04T19:34:56.508Z,25.89
2022-12-04T19:36:56.614Z,25.98
2022-12-04T19:38:56.646Z,25.88
2022-12-04T19:40:56.720Z,25.91
2022-12-04T19:43:02.492Z,25.88
2022-12-04T19:44:56.653Z,25.87
2022-12-04T19:46:56.576Z,25.90
2022-12-04T19:48:56.542Z,25.91
2022-12-04T19:50:56.653Z,25.81
2022-12-04T19:52:56.619Z,25.90
2022-12-04T19:54:56.683Z,25.54
2022-12-04T19:56:56.622Z,25.80
2022-12-04T19:58:56.571Z,25.88
2022-12-04T20:00:56.727Z,25.82
2022-12-04T20:02:56.860Z,25.80
2022-12-04T20:04:56.645Z,25.83
2022-12-04T20:06:56.576Z,25.83
2022-12-04T20:08:56.635Z,25.89
2022-12-04T20:10:56.593Z,25.91
2022-12-04T20:12:56.669Z,25.83
2022-12-04T20:14:56.694Z,25.82
2022-12-04T20:16:56.713Z,25.81
2022-12-04T20:18:56.607Z,25.82
2022-12-04T20:20:56.645Z,25.85
2022-12-04T20:22:56.592Z,25.86
2022-12-04T20:24:56.808Z,25.84
2022-12-04T20:26:56.616Z,25.84
2022-12-04T20:28:56.639Z,25.89
2022-12-04T20:30:56.830Z,25.75
2022-12-04T20:32:56.643Z,25.83
2022-12-04T20:34:56.637Z,25.89
2022-12-04T20:36:56.785Z,25.89
2022-12-04T20:38:56.584Z,25.80
2022-12-04T20:40:56.673Z,25.89
2022-12-04T20:42:56.648Z,25.91
2022-12-04T20:44:56.676Z,25.80
2022-12-04T20:46:56.743Z,25.93
2022-12-04T20:48:56.652Z,25.86
2022-12-04T20:50:56.682Z,25.91
2022-12-04T20:52:56.836Z,25.91
2022-12-04T20:54:56.569Z,25.96
2022-12-04T20:56:56.672Z,25.91
2022-12-04T20:58:56.639Z,25.93
2022-12-04T21:00:56.772Z,25.90
2022-12-04T21:02:56.613Z,25.90
2022-12-04T21:04:56.564Z,25.85
2022-12-04T21:06:56.712Z,25.90
2022-12-04T21:08:56.774Z,25.89
2022-12-04T21:10:56.573Z,25.82
2022-12-04T21:12:56.764Z,25.83
2022-12-04T21:14:56.666Z,25.96
2022-12-04T21:16:56.763Z,25.86
2022-12-04T21:18:56.709Z,25.91
2022-12-04T21:20:56.693Z,25.86
2022-12-04T21:22:56.682Z,25.92
2022-12-04T21:24:56.720Z,25.83
2022-12-04T21:26:56.705Z,25.86
2022-12-04T21:28:56.738Z,25.84
2022-12-04T21:30:56.767Z,25.80
2022-12-04T21:32:56.730Z,25.86
2022-12-04T21:34:56.886Z,25.91
2022-12-04T21:36:56.690Z,25.84
2022-12-04T21:38:56.770Z,25.84
2022-12-04T21:40:57.000Z,25.88
2022-12-04T21:42:56.758Z,25.93
2022-12-04T21:44:56.767Z,25.81
2022-12-04T21:46:57.067Z,25.84
2022-12-04T21:48:56.792Z,25.86
2022-12-04T21:50:56.610Z,25.84
2022-12-04T21:52:56.874Z,25.89
2022-12-04T21:54:56.863Z,25.96
2022-12-04T21:56:56.776Z,25.90
2022-12-04T21:58:56.641Z,25.86
2022-12-04T22:00:56.829Z,25.93
2022-12-04T22:02:56.834Z,25.85
2022-12-04T22:04:56.798Z,25.93
2022-12-04T22:06:56.713Z,25.83
2022-12-04T22:08:56.734Z,25.86
2022-12-04T22:10:56.751Z,25.82
2022-12-04T22:12:56.793Z,25.80
2022-12-04T22:14:56.749Z,25.86
2022-12-04T22:16:56.617Z,25.82
2022-12-04T22:18:56.789Z,25.83
2022-12-04T22:20:56.767Z,25.83
2022-12-04T22:22:56.671Z,25.87
2022-12-04T22:24:56.626Z,25.93
2022-12-04T22:26:56.628Z,25.88
2022-12-04T22:28:56.769Z,25.84
2022-12-04T22:30:56.795Z,25.84
2022-12-04T22:32:56.785Z,25.81
2022-12-04T22:34:56.778Z,25.80
2022-12-04T22:36:56.708Z,25.88
2022-12-04T22:39:09.231Z,25.80
2022-12-04T22:40:56.711Z,25.91
2022-12-04T22:42:56.746Z,25.90
2022-12-04T22:44:56.799Z,25.83
2022-12-04T22:46:56.813Z,25.89
2022-12-04T22:48:56.786Z,25.88
2022-12-04T22:50:56.798Z,25.80
2022-12-04T22:52:56.826Z,25.81
2022-12-04T22:54:56.789Z,25.78
2022-12-04T22:56:56.790Z,25.80
2022-12-04T22:58:56.803Z,25.75
2022-12-04T23:00:56.797Z,25.83
2022-12-04T23:02:56.729Z,25.78
2022-12-04T23:04:56.885Z,25.75
2022-12-04T23:06:56.659Z,25.75
2022-12-04T23:08:56.804Z,25.65
2022-12-04T23:10:56.798Z,25.80
2022-12-04T23:12:56.800Z,25.75
2022-12-04T23:14:56.831Z,25.85
2022-12-04T23:16:56.876Z,25.80
2022-12-04T23:18:56.825Z,25.81
2022-12-04T23:20:56.833Z,25.84
2022-12-04T23:22:56.762Z,25.58
2022-12-04T23:24:56.882Z,25.86
2022-12-04T23:26:56.765Z,25.90
2022-12-04T23:28:56.927Z,25.88
2022-12-04T23:30:56.824Z,25.85
2022-12-04T23:32:56.833Z,25.81
2022-12-04T23:34:56.818Z,25.80
2022-12-04T23:36:56.818Z,25.83
2022-12-04T23:38:56.860Z,25.81
2022-12-04T23:40:56.846Z,25.80
2022-12-04T23:42:56.846Z,25.80
2022-12-04T23:44:56.870Z,25.79
2022-12-04T23:46:56.873Z,25.78
2022-12-04T23:48:56.904Z,25.82
2022-12-04T23:50:56.835Z,25.74
2022-12-04T23:52:56.850Z,25.57
2022-12-04T23:54:56.854Z,25.83
2022-12-04T23:56:56.793Z,25.83
2022-12-04T23:58:56.875Z,25.91
